sensor_id;sensor_type;location;lat;lon;timestamp;temperature;humidity
18597;DHT22;9428;50.950;6.912;2023-09-12T00:02:15;22.00;99.90
18597;DHT22;9428;50.950;6.912;2023-09-12T00:05:03;21.90;99.90
18597;DHT22;9428;50.950;6.912;2023-09-12T00:07:52;21.80;99.90
18597;DHT22;9428;50.950;6.912;2023-09-12T00:10:40;21.70;99.90
18597;DHT22;9428;50.950;6.912;2023-09-12T00:13:28;21.70;99.90
18597;DHT22;9428;50.950;6.912;2023-09-12T00:16:15;21.60;99.90
18597;DHT22;9428;50.950;6.912;2023-09-12T00:19:02;21.70;99.90
18597;DHT22;9428;50.950;6.912;2023-09-12T00:21:49;21.60;99.90
18597;DHT22;9428;50.950;6.912;2023-09-12T00:24:38;21.60;99.90
18597;DHT22;9428;50.950;6.912;2023-09-12T00:27:27;21.50;99.90
18597;DHT22;9428;50.950;6.912;2023-09-12T00:30:15;21.50;99.90
18597;DHT22;9428;50.950;6.912;2023-09-12T00:33:02;21.30;99.90
18597;DHT22;9428;50.950;6.912;2023-09-12T00:35:50;21.20;99.90
18597;DHT22;9428;50.950;6.912;2023-09-12T00:38:37;21.20;99.90
18597;DHT22;9428;50.950;6.912;2023-09-12T00:41:24;21.30;99.90
18597;DHT22;9428;50.950;6.912;2023-09-12T00:44:12;21.20;99.90
18597;DHT22;9428;50.950;6.912;2023-09-12T00:47:00;21.00;99.90
18597;DHT22;9428;50.950;6.912;2023-09-12T00:49:48;21.20;99.90
18597;DHT22;9428;50.950;6.912;2023-09-12T00:52:37;21.20;99.90
18597;DHT22;9428;50.950;6.912;2023-09-12T00:55:25;21.20;99.90
18597;DHT22;9428;50.950;6.912;2023-09-12T00:58:13;21.20;99.90
18597;DHT22;9428;50.950;6.912;2023-09-12T01:01:03;21.10;99.90
18597;DHT22;9428;50.950;6.912;2023-09-12T01:03:50;21.10;99.90
18597;DHT22;9428;50.950;6.912;2023-09-12T01:06:38;21.00;99.90
18597;DHT22;9428;50.950;6.912;2023-09-12T01:09:25;21.20;99.90
18597;DHT22;9428;50.950;6.912;2023-09-12T01:12:13;21.10;99.90
18597;DHT22;9428;50.950;6.912;2023-09-12T01:15:00;21.10;99.90
18597;DHT22;9428;50.950;6.912;2023-09-12T01:17:50;21.10;99.90
18597;DHT22;9428;50.950;6.912;2023-09-12T01:20:39;21.20;99.90
18597;DHT22;9428;50.950;6.912;2023-09-12T01:23:37;21.10;99.90
18597;DHT22;9428;50.950;6.912;2023-09-12T01:26:39;21.10;99.90
18597;DHT22;9428;50.950;6.912;2023-09-12T01:29:30;21.10;99.90
18597;DHT22;9428;50.950;6.912;2023-09-12T01:32:18;21.20;99.90
18597;DHT22;9428;50.950;6.912;2023-09-12T01:35:07;21.20;99.90
18597;DHT22;9428;50.950;6.912;2023-09-12T01:37:55;21.00;99.90
18597;DHT22;9428;50.950;6.912;2023-09-12T01:40:45;21.00;99.90
18597;DHT22;9428;50.950;6.912;2023-09-12T01:43:36;21.00;99.90
18597;DHT22;9428;50.950;6.912;2023-09-12T01:46:27;21.00;99.90
18597;DHT22;9428;50.950;6.912;2023-09-12T01:49:15;21.20;99.90
18597;DHT22;9428;50.950;6.912;2023-09-12T01:52:03;21.00;99.90
18597;DHT22;9428;50.950;6.912;2023-09-12T01:54:51;21.10;99.90
18597;DHT22;9428;50.950;6.912;2023-09-12T01:57:39;21.00;99.90
18597;DHT22;9428;50.950;6.912;2023-09-12T02:00:27;21.00;99.90
18597;DHT22;9428;50.950;6.912;2023-09-12T02:03:15;21.00;99.90
18597;DHT22;9428;50.950;6.912;2023-09-12T02:06:03;21.00;99.90
18597;DHT22;9428;50.950;6.912;2023-09-12T02:08:50;21.00;99.90
18597;DHT22;9428;50.950;6.912;2023-09-12T02:11:37;21.00;99.90
18597;DHT22;9428;50.950;6.912;2023-09-12T02:14:24;20.90;99.90
18597;DHT22;9428;50.950;6.912;2023-09-12T02:17:12;20.80;99.90
18597;DHT22;9428;50.950;6.912;2023-09-12T02:20:00;20.80;99.90
18597;DHT22;9428;50.950;6.912;2023-09-12T02:22:49;20.80;99.90
18597;DHT22;9428;50.950;6.912;2023-09-12T02:25:37;20.80;99.90
18597;DHT22;9428;50.950;6.912;2023-09-12T02:28:24;20.80;99.90
18597;DHT22;9428;50.950;6.912;2023-09-12T02:31:11;20.80;99.90
18597;DHT22;9428;50.950;6.912;2023-09-12T02:33:59;20.80;99.90
18597;DHT22;9428;50.950;6.912;2023-09-12T02:36:47;20.70;99.90
18597;DHT22;9428;50.950;6.912;2023-09-12T02:39:35;20.70;99.90
18597;DHT22;9428;50.950;6.912;2023-09-12T02:42:22;20.70;99.90
18597;DHT22;9428;50.950;6.912;2023-09-12T02:45:10;20.70;99.90
18597;DHT22;9428;50.950;6.912;2023-09-12T02:47:57;20.70;99.90
18597;DHT22;9428;50.950;6.912;2023-09-12T02:50:45;20.80;99.90
18597;DHT22;9428;50.950;6.912;2023-09-12T02:53:33;20.70;99.90
18597;DHT22;9428;50.950;6.912;2023-09-12T02:56:21;20.80;99.90
18597;DHT22;9428;50.950;6.912;2023-09-12T02:59:08;20.70;99.90
18597;DHT22;9428;50.950;6.912;2023-09-12T03:01:55;20.70;99.90
18597;DHT22;9428;50.950;6.912;2023-09-12T03:04:42;20.70;99.90
18597;DHT22;9428;50.950;6.912;2023-09-12T03:07:30;20.80;99.90
18597;DHT22;9428;50.950;6.912;2023-09-12T03:10:18;20.70;99.90
18597;DHT22;9428;50.950;6.912;2023-09-12T03:13:06;20.70;99.90
18597;DHT22;9428;50.950;6.912;2023-09-12T03:15:53;20.80;99.90
18597;DHT22;9428;50.950;6.912;2023-09-12T03:18:40;20.80;99.90
18597;DHT22;9428;50.950;6.912;2023-09-12T03:21:27;20.90;99.90
18597;DHT22;9428;50.950;6.912;2023-09-12T03:24:15;20.90;99.90
18597;DHT22;9428;50.950;6.912;2023-09-12T03:27:05;20.80;99.90
18597;DHT22;9428;50.950;6.912;2023-09-12T03:29:52;21.00;99.90
18597;DHT22;9428;50.950;6.912;2023-09-12T03:32:40;21.00;99.90
18597;DHT22;9428;50.950;6.912;2023-09-12T03:35:28;20.90;99.90
18597;DHT22;9428;50.950;6.912;2023-09-12T03:38:16;20.90;99.90
18597;DHT22;9428;50.950;6.912;2023-09-12T03:41:03;20.90;99.90
18597;DHT22;9428;50.950;6.912;2023-09-12T03:43:52;20.80;99.90
18597;DHT22;9428;50.950;6.912;2023-09-12T03:46:40;20.60;99.90
18597;DHT22;9428;50.950;6.912;2023-09-12T03:49:27;20.80;99.90
18597;DHT22;9428;50.950;6.912;2023-09-12T03:52:16;20.80;99.90
18597;DHT22;9428;50.950;6.912;2023-09-12T03:55:03;20.80;99.90
18597;DHT22;9428;50.950;6.912;2023-09-12T03:57:51;20.30;99.90
18597;DHT22;9428;50.950;6.912;2023-09-12T04:00:39;20.90;99.90
18597;DHT22;9428;50.950;6.912;2023-09-12T04:03:26;20.80;99.90
18597;DHT22;9428;50.950;6.912;2023-09-12T04:06:14;20.90;99.90
18597;DHT22;9428;50.950;6.912;2023-09-12T04:09:01;20.80;99.90
18597;DHT22;9428;50.950;6.912;2023-09-12T04:11:51;21.00;99.90
18597;DHT22;9428;50.950;6.912;2023-09-12T04:14:39;21.10;99.90
18597;DHT22;9428;50.950;6.912;2023-09-12T04:17:27;21.00;99.90
18597;DHT22;9428;50.950;6.912;2023-09-12T04:20:14;21.00;99.90
18597;DHT22;9428;50.950;6.912;2023-09-12T04:23:02;21.00;99.90
18597;DHT22;9428;50.950;6.912;2023-09-12T04:25:50;21.00;99.90
18597;DHT22;9428;50.950;6.912;2023-09-12T04:28:37;21.00;99.90
18597;DHT22;9428;50.950;6.912;2023-09-12T04:31:24;21.00;99.90
18597;DHT22;9428;50.950;6.912;2023-09-12T04:34:13;20.90;99.90
18597;DHT22;9428;50.950;6.912;2023-09-12T04:37:00;21.20;99.90
18597;DHT22;9428;50.950;6.912;2023-09-12T04:39:48;21.00;99.90
18597;DHT22;9428;50.950;6.912;2023-09-12T04:42:35;21.00;99.90
18597;DHT22;9428;50.950;6.912;2023-09-12T04:45:23;21.00;99.90
18597;DHT22;9428;50.950;6.912;2023-09-12T04:48:10;20.90;99.90
18597;DHT22;9428;50.950;6.912;2023-09-12T04:50:58;20.90;99.90
18597;DHT22;9428;50.950;6.912;2023-09-12T04:53:46;21.00;99.90
18597;DHT22;9428;50.950;6.912;2023-09-12T04:56:37;21.00;99.90
18597;DHT22;9428;50.950;6.912;2023-09-12T04:59:24;21.10;99.90
18597;DHT22;9428;50.950;6.912;2023-09-12T05:02:11;21.00;99.90
18597;DHT22;9428;50.950;6.912;2023-09-12T05:04:58;21.10;99.90
18597;DHT22;9428;50.950;6.912;2023-09-12T05:07:47;21.10;99.90
18597;DHT22;9428;50.950;6.912;2023-09-12T05:10:35;21.20;99.90
18597;DHT22;9428;50.950;6.912;2023-09-12T05:13:22;21.10;99.90
18597;DHT22;9428;50.950;6.912;2023-09-12T05:16:09;21.20;99.90
18597;DHT22;9428;50.950;6.912;2023-09-12T05:18:56;21.20;99.90
18597;DHT22;9428;50.950;6.912;2023-09-12T05:21:43;21.20;99.90
18597;DHT22;9428;50.950;6.912;2023-09-12T05:24:32;21.20;99.90
18597;DHT22;9428;50.950;6.912;2023-09-12T05:27:19;21.10;99.90
18597;DHT22;9428;50.950;6.912;2023-09-12T05:30:07;21.10;99.90
18597;DHT22;9428;50.950;6.912;2023-09-12T05:32:54;21.20;99.90
18597;DHT22;9428;50.950;6.912;2023-09-12T05:35:41;21.10;99.90
18597;DHT22;9428;50.950;6.912;2023-09-12T05:38:30;21.20;99.90
18597;DHT22;9428;50.950;6.912;2023-09-12T05:41:18;21.20;99.90
18597;DHT22;9428;50.950;6.912;2023-09-12T05:44:05;21.30;99.90
18597;DHT22;9428;50.950;6.912;2023-09-12T05:46:53;21.20;99.90
18597;DHT22;9428;50.950;6.912;2023-09-12T05:49:40;21.30;99.90
18597;DHT22;9428;50.950;6.912;2023-09-12T05:52:27;21.30;99.90
18597;DHT22;9428;50.950;6.912;2023-09-12T05:55:15;21.30;99.90
18597;DHT22;9428;50.950;6.912;2023-09-12T05:58:04;21.30;99.90
18597;DHT22;9428;50.950;6.912;2023-09-12T06:00:52;21.30;99.90
18597;DHT22;9428;50.950;6.912;2023-09-12T06:03:39;21.30;99.90
18597;DHT22;9428;50.950;6.912;2023-09-12T06:06:27;21.20;99.90
18597;DHT22;9428;50.950;6.912;2023-09-12T06:09:14;21.30;99.90
18597;DHT22;9428;50.950;6.912;2023-09-12T06:12:02;21.30;99.90
18597;DHT22;9428;50.950;6.912;2023-09-12T06:14:51;21.40;99.90
18597;DHT22;9428;50.950;6.912;2023-09-12T06:17:39;21.50;99.90
18597;DHT22;9428;50.950;6.912;2023-09-12T06:20:26;21.50;99.90
18597;DHT22;9428;50.950;6.912;2023-09-12T06:23:13;21.50;99.90
18597;DHT22;9428;50.950;6.912;2023-09-12T06:26:00;21.50;99.90
18597;DHT22;9428;50.950;6.912;2023-09-12T06:28:47;21.60;99.90
18597;DHT22;9428;50.950;6.912;2023-09-12T06:31:36;21.50;99.90
18597;DHT22;9428;50.950;6.912;2023-09-12T06:34:23;21.40;99.90
18597;DHT22;9428;50.950;6.912;2023-09-12T06:37:11;21.40;99.90
18597;DHT22;9428;50.950;6.912;2023-09-12T06:39:59;21.50;99.90
18597;DHT22;9428;50.950;6.912;2023-09-12T06:42:46;21.60;99.90
18597;DHT22;9428;50.950;6.912;2023-09-12T06:45:33;21.60;99.90
18597;DHT22;9428;50.950;6.912;2023-09-12T06:48:25;21.50;99.90
18597;DHT22;9428;50.950;6.912;2023-09-12T06:51:12;21.60;99.90
18597;DHT22;9428;50.950;6.912;2023-09-12T06:54:00;21.40;99.90
18597;DHT22;9428;50.950;6.912;2023-09-12T06:56:47;21.50;99.90
18597;DHT22;9428;50.950;6.912;2023-09-12T06:59:34;21.60;99.90
18597;DHT22;9428;50.950;6.912;2023-09-12T07:02:21;21.80;99.90
18597;DHT22;9428;50.950;6.912;2023-09-12T07:05:10;21.80;99.90
18597;DHT22;9428;50.950;6.912;2023-09-12T07:07:57;21.70;99.90
18597;DHT22;9428;50.950;6.912;2023-09-12T07:10:44;21.80;99.90
18597;DHT22;9428;50.950;6.912;2023-09-12T07:13:32;21.70;99.90
18597;DHT22;9428;50.950;6.912;2023-09-12T07:16:20;21.60;99.90
18597;DHT22;9428;50.950;6.912;2023-09-12T07:19:07;21.70;99.90
18597;DHT22;9428;50.950;6.912;2023-09-12T07:21:57;21.80;99.90
18597;DHT22;9428;50.950;6.912;2023-09-12T07:24:44;21.80;99.90
18597;DHT22;9428;50.950;6.912;2023-09-12T07:27:31;21.80;99.90
18597;DHT22;9428;50.950;6.912;2023-09-12T07:30:19;21.80;99.90
18597;DHT22;9428;50.950;6.912;2023-09-12T07:33:06;21.90;99.90
18597;DHT22;9428;50.950;6.912;2023-09-12T07:35:53;21.90;99.90
18597;DHT22;9428;50.950;6.912;2023-09-12T07:38:42;22.20;99.90
18597;DHT22;9428;50.950;6.912;2023-09-12T07:41:31;22.00;99.90
18597;DHT22;9428;50.950;6.912;2023-09-12T07:44:18;21.90;99.90
18597;DHT22;9428;50.950;6.912;2023-09-12T07:47:07;21.80;99.90
18597;DHT22;9428;50.950;6.912;2023-09-12T07:49:54;22.00;99.90
18597;DHT22;9428;50.950;6.912;2023-09-12T07:52:43;22.00;99.90
18597;DHT22;9428;50.950;6.912;2023-09-12T07:55:31;22.10;99.90
18597;DHT22;9428;50.950;6.912;2023-09-12T07:58:22;22.20;99.90
18597;DHT22;9428;50.950;6.912;2023-09-12T08:01:09;22.20;99.90
18597;DHT22;9428;50.950;6.912;2023-09-12T08:03:56;22.30;99.90
18597;DHT22;9428;50.950;6.912;2023-09-12T08:06:44;22.30;99.90
18597;DHT22;9428;50.950;6.912;2023-09-12T08:09:49;22.50;99.90
18597;DHT22;9428;50.950;6.912;2023-09-12T08:12:38;22.50;99.90
18597;DHT22;9428;50.950;6.912;2023-09-12T08:15:27;22.60;99.90
18597;DHT22;9428;50.950;6.912;2023-09-12T08:18:14;22.70;99.90
18597;DHT22;9428;50.950;6.912;2023-09-12T08:21:02;22.70;99.90
18597;DHT22;9428;50.950;6.912;2023-09-12T08:23:49;22.70;99.90
18597;DHT22;9428;50.950;6.912;2023-09-12T08:26:37;22.70;99.90
18597;DHT22;9428;50.950;6.912;2023-09-12T08:29:25;22.70;99.90
18597;DHT22;9428;50.950;6.912;2023-09-12T08:32:12;22.70;99.90
18597;DHT22;9428;50.950;6.912;2023-09-12T08:34:59;22.70;99.90
18597;DHT22;9428;50.950;6.912;2023-09-12T08:37:48;22.80;99.90
18597;DHT22;9428;50.950;6.912;2023-09-12T08:40:35;22.80;99.90
18597;DHT22;9428;50.950;6.912;2023-09-12T08:43:23;22.80;99.90
18597;DHT22;9428;50.950;6.912;2023-09-12T08:46:12;22.80;99.90
18597;DHT22;9428;50.950;6.912;2023-09-12T08:49:01;22.80;99.90
18597;DHT22;9428;50.950;6.912;2023-09-12T08:51:48;22.80;99.90
18597;DHT22;9428;50.950;6.912;2023-09-12T08:54:35;22.90;99.90
18597;DHT22;9428;50.950;6.912;2023-09-12T08:57:23;22.90;99.90
18597;DHT22;9428;50.950;6.912;2023-09-12T09:00:11;22.80;99.90
18597;DHT22;9428;50.950;6.912;2023-09-12T09:03:01;22.90;99.90
18597;DHT22;9428;50.950;6.912;2023-09-12T09:05:49;23.00;99.90
18597;DHT22;9428;50.950;6.912;2023-09-12T09:08:39;23.00;99.90
18597;DHT22;9428;50.950;6.912;2023-09-12T09:11:27;23.10;99.90
18597;DHT22;9428;50.950;6.912;2023-09-12T09:14:14;23.30;99.90
18597;DHT22;9428;50.950;6.912;2023-09-12T09:17:01;23.30;99.90
18597;DHT22;9428;50.950;6.912;2023-09-12T09:19:50;23.50;99.90
18597;DHT22;9428;50.950;6.912;2023-09-12T09:22:37;23.50;99.90
18597;DHT22;9428;50.950;6.912;2023-09-12T09:25:24;23.60;99.90
18597;DHT22;9428;50.950;6.912;2023-09-12T09:28:19;23.70;99.90
18597;DHT22;9428;50.950;6.912;2023-09-12T09:31:10;23.70;99.90
18597;DHT22;9428;50.950;6.912;2023-09-12T09:33:58;23.80;99.90
18597;DHT22;9428;50.950;6.912;2023-09-12T09:36:50;23.70;99.90
18597;DHT22;9428;50.950;6.912;2023-09-12T09:39:37;23.60;99.90
18597;DHT22;9428;50.950;6.912;2023-09-12T09:42:24;23.60;99.90
18597;DHT22;9428;50.950;6.912;2023-09-12T09:45:15;23.70;99.90
18597;DHT22;9428;50.950;6.912;2023-09-12T09:48:05;23.60;99.90
18597;DHT22;9428;50.950;6.912;2023-09-12T09:50:53;23.50;99.90
18597;DHT22;9428;50.950;6.912;2023-09-12T09:53:51;23.40;99.90
18597;DHT22;9428;50.950;6.912;2023-09-12T09:56:45;23.40;99.90
18597;DHT22;9428;50.950;6.912;2023-09-12T09:59:33;23.50;99.90
18597;DHT22;9428;50.950;6.912;2023-09-12T10:02:22;23.50;99.90
18597;DHT22;9428;50.950;6.912;2023-09-12T10:05:13;23.40;99.90
18597;DHT22;9428;50.950;6.912;2023-09-12T10:08:04;23.30;99.90
18597;DHT22;9428;50.950;6.912;2023-09-12T10:10:57;23.20;99.90
18597;DHT22;9428;50.950;6.912;2023-09-12T10:13:53;23.30;99.90
18597;DHT22;9428;50.950;6.912;2023-09-12T10:16:45;23.30;99.90
18597;DHT22;9428;50.950;6.912;2023-09-12T10:19:35;23.20;99.90
18597;DHT22;9428;50.950;6.912;2023-09-12T10:22:29;23.20;99.90
18597;DHT22;9428;50.950;6.912;2023-09-12T10:25:19;23.30;99.90
18597;DHT22;9428;50.950;6.912;2023-09-12T10:28:08;23.20;99.90
18597;DHT22;9428;50.950;6.912;2023-09-12T10:30:57;23.40;99.90
18597;DHT22;9428;50.950;6.912;2023-09-12T10:33:49;23.50;99.90
18597;DHT22;9428;50.950;6.912;2023-09-12T10:36:38;23.40;99.90
18597;DHT22;9428;50.950;6.912;2023-09-12T10:39:27;23.40;99.90
18597;DHT22;9428;50.950;6.912;2023-09-12T10:42:17;23.50;99.90
18597;DHT22;9428;50.950;6.912;2023-09-12T10:45:07;23.50;99.90
18597;DHT22;9428;50.950;6.912;2023-09-12T10:47:54;23.70;99.90
18597;DHT22;9428;50.950;6.912;2023-09-12T10:50:42;23.90;99.90
18597;DHT22;9428;50.950;6.912;2023-09-12T10:53:30;23.90;99.90
18597;DHT22;9428;50.950;6.912;2023-09-12T10:56:20;24.00;99.90
18597;DHT22;9428;50.950;6.912;2023-09-12T10:59:12;24.00;99.90
18597;DHT22;9428;50.950;6.912;2023-09-12T11:02:27;24.00;99.90
18597;DHT22;9428;50.950;6.912;2023-09-12T11:05:37;23.90;99.90
18597;DHT22;9428;50.950;6.912;2023-09-12T11:08:40;23.90;99.90
18597;DHT22;9428;50.950;6.912;2023-09-12T11:11:27;24.00;99.90
18597;DHT22;9428;50.950;6.912;2023-09-12T11:14:15;23.90;99.90
18597;DHT22;9428;50.950;6.912;2023-09-12T11:17:22;23.80;99.90
18597;DHT22;9428;50.950;6.912;2023-09-12T11:20:11;23.90;99.90
18597;DHT22;9428;50.950;6.912;2023-09-12T11:23:10;24.10;99.90
18597;DHT22;9428;50.950;6.912;2023-09-12T11:26:04;23.90;99.90
18597;DHT22;9428;50.950;6.912;2023-09-12T11:28:53;23.90;99.90
18597;DHT22;9428;50.950;6.912;2023-09-12T11:31:41;24.00;99.90
18597;DHT22;9428;50.950;6.912;2023-09-12T11:34:42;24.10;99.90
18597;DHT22;9428;50.950;6.912;2023-09-12T11:37:30;24.00;99.90
18597;DHT22;9428;50.950;6.912;2023-09-12T11:40:23;24.10;99.90
18597;DHT22;9428;50.950;6.912;2023-09-12T11:43:20;24.00;99.90
18597;DHT22;9428;50.950;6.912;2023-09-12T11:46:07;23.90;99.90
18597;DHT22;9428;50.950;6.912;2023-09-12T11:48:56;23.90;99.90
18597;DHT22;9428;50.950;6.912;2023-09-12T11:51:49;24.00;99.90
18597;DHT22;9428;50.950;6.912;2023-09-12T11:54:37;24.20;99.90
18597;DHT22;9428;50.950;6.912;2023-09-12T11:57:25;24.10;99.90
18597;DHT22;9428;50.950;6.912;2023-09-12T12:00:13;24.20;99.90
18597;DHT22;9428;50.950;6.912;2023-09-12T12:03:06;24.30;99.90
18597;DHT22;9428;50.950;6.912;2023-09-12T12:05:54;24.30;99.90
18597;DHT22;9428;50.950;6.912;2023-09-12T12:08:43;24.30;99.90
18597;DHT22;9428;50.950;6.912;2023-09-12T12:11:32;24.40;99.90
18597;DHT22;9428;50.950;6.912;2023-09-12T12:14:19;24.40;99.90
18597;DHT22;9428;50.950;6.912;2023-09-12T12:17:08;24.40;99.90
18597;DHT22;9428;50.950;6.912;2023-09-12T12:20:01;24.50;99.90
18597;DHT22;9428;50.950;6.912;2023-09-12T12:22:53;24.40;99.90
18597;DHT22;9428;50.950;6.912;2023-09-12T12:25:42;24.40;99.90
18597;DHT22;9428;50.950;6.912;2023-09-12T12:28:30;24.40;99.90
18597;DHT22;9428;50.950;6.912;2023-09-12T12:31:18;24.50;99.90
18597;DHT22;9428;50.950;6.912;2023-09-12T12:34:06;24.50;99.90
18597;DHT22;9428;50.950;6.912;2023-09-12T12:36:53;24.40;99.90
18597;DHT22;9428;50.950;6.912;2023-09-12T12:39:42;24.50;99.90
18597;DHT22;9428;50.950;6.912;2023-09-12T12:42:35;24.80;99.90
18597;DHT22;9428;50.950;6.912;2023-09-12T12:45:23;24.60;99.90
18597;DHT22;9428;50.950;6.912;2023-09-12T12:48:11;24.50;99.90
18597;DHT22;9428;50.950;6.912;2023-09-12T12:50:59;24.70;99.90
18597;DHT22;9428;50.950;6.912;2023-09-12T12:53:47;24.80;99.90
18597;DHT22;9428;50.950;6.912;2023-09-12T12:56:36;24.90;99.90
18597;DHT22;9428;50.950;6.912;2023-09-12T12:59:26;24.90;99.90
18597;DHT22;9428;50.950;6.912;2023-09-12T13:02:15;24.90;99.90
18597;DHT22;9428;50.950;6.912;2023-09-12T13:05:03;24.70;99.90
18597;DHT22;9428;50.950;6.912;2023-09-12T13:07:54;24.70;99.90
18597;DHT22;9428;50.950;6.912;2023-09-12T13:10:42;24.80;99.90
18597;DHT22;9428;50.950;6.912;2023-09-12T13:13:29;24.70;99.90
18597;DHT22;9428;50.950;6.912;2023-09-12T13:16:18;24.70;99.90
18597;DHT22;9428;50.950;6.912;2023-09-12T13:19:06;24.60;99.90
18597;DHT22;9428;50.950;6.912;2023-09-12T13:21:53;24.60;99.90
18597;DHT22;9428;50.950;6.912;2023-09-12T13:24:41;24.60;99.90
18597;DHT22;9428;50.950;6.912;2023-09-12T13:27:28;24.80;99.90
18597;DHT22;9428;50.950;6.912;2023-09-12T13:30:16;24.90;99.90
18597;DHT22;9428;50.950;6.912;2023-09-12T13:33:04;24.90;99.90
18597;DHT22;9428;50.950;6.912;2023-09-12T13:35:52;24.90;99.90
18597;DHT22;9428;50.950;6.912;2023-09-12T13:38:39;25.00;99.90
18597;DHT22;9428;50.950;6.912;2023-09-12T13:41:26;24.90;99.90
18597;DHT22;9428;50.950;6.912;2023-09-12T13:44:14;24.70;99.90
18597;DHT22;9428;50.950;6.912;2023-09-12T13:47:02;24.70;99.90
18597;DHT22;9428;50.950;6.912;2023-09-12T13:49:50;24.70;99.90
18597;DHT22;9428;50.950;6.912;2023-09-12T13:52:38;24.60;99.90
18597;DHT22;9428;50.950;6.912;2023-09-12T13:55:26;24.60;99.90
18597;DHT22;9428;50.950;6.912;2023-09-12T13:58:13;24.70;99.90
18597;DHT22;9428;50.950;6.912;2023-09-12T14:01:00;24.70;99.90
18597;DHT22;9428;50.950;6.912;2023-09-12T14:03:48;24.80;99.90
18597;DHT22;9428;50.950;6.912;2023-09-12T14:06:37;24.70;99.90
18597;DHT22;9428;50.950;6.912;2023-09-12T14:09:24;24.70;99.90
18597;DHT22;9428;50.950;6.912;2023-09-12T14:12:11;24.70;99.90
18597;DHT22;9428;50.950;6.912;2023-09-12T14:14:58;24.80;99.90
18597;DHT22;9428;50.950;6.912;2023-09-12T14:17:46;24.80;99.90
18597;DHT22;9428;50.950;6.912;2023-09-12T14:20:33;24.70;99.90
18597;DHT22;9428;50.950;6.912;2023-09-12T14:23:21;24.90;99.90
18597;DHT22;9428;50.950;6.912;2023-09-12T14:26:09;24.90;99.90
18597;DHT22;9428;50.950;6.912;2023-09-12T14:28:56;25.00;99.90
18597;DHT22;9428;50.950;6.912;2023-09-12T14:31:44;25.00;99.90
18597;DHT22;9428;50.950;6.912;2023-09-12T14:34:35;25.00;99.90
18597;DHT22;9428;50.950;6.912;2023-09-12T14:37:23;24.90;99.90
18597;DHT22;9428;50.950;6.912;2023-09-12T14:40:14;25.00;99.90
18597;DHT22;9428;50.950;6.912;2023-09-12T14:43:03;25.00;99.90
18597;DHT22;9428;50.950;6.912;2023-09-12T14:45:50;24.80;99.90
18597;DHT22;9428;50.950;6.912;2023-09-12T14:48:37;25.00;99.90
18597;DHT22;9428;50.950;6.912;2023-09-12T14:51:25;25.10;99.90
18597;DHT22;9428;50.950;6.912;2023-09-12T14:54:12;25.10;99.90
18597;DHT22;9428;50.950;6.912;2023-09-12T14:57:01;25.20;99.90
18597;DHT22;9428;50.950;6.912;2023-09-12T14:59:50;25.10;99.90
18597;DHT22;9428;50.950;6.912;2023-09-12T15:02:39;25.10;99.90
18597;DHT22;9428;50.950;6.912;2023-09-12T15:05:28;25.00;99.90
18597;DHT22;9428;50.950;6.912;2023-09-12T15:08:15;25.10;99.90
18597;DHT22;9428;50.950;6.912;2023-09-12T15:11:02;25.00;99.90
18597;DHT22;9428;50.950;6.912;2023-09-12T15:13:51;25.00;99.90
18597;DHT22;9428;50.950;6.912;2023-09-12T15:16:38;24.90;99.90
18597;DHT22;9428;50.950;6.912;2023-09-12T15:19:26;25.00;99.90
18597;DHT22;9428;50.950;6.912;2023-09-12T15:22:13;25.10;99.90
18597;DHT22;9428;50.950;6.912;2023-09-12T15:25:03;25.00;99.90
18597;DHT22;9428;50.950;6.912;2023-09-12T15:27:50;24.30;99.90
18597;DHT22;9428;50.950;6.912;2023-09-12T15:30:39;24.90;99.90
18597;DHT22;9428;50.950;6.912;2023-09-12T15:33:26;24.80;99.90
18597;DHT22;9428;50.950;6.912;2023-09-12T15:36:13;24.70;99.90
18597;DHT22;9428;50.950;6.912;2023-09-12T15:39:01;24.70;99.90
18597;DHT22;9428;50.950;6.912;2023-09-12T15:41:48;24.60;99.90
18597;DHT22;9428;50.950;6.912;2023-09-12T15:44:36;24.60;99.90
18597;DHT22;9428;50.950;6.912;2023-09-12T15:47:24;24.60;99.90
18597;DHT22;9428;50.950;6.912;2023-09-12T15:50:12;24.60;99.90
18597;DHT22;9428;50.950;6.912;2023-09-12T15:52:59;24.70;99.90
18597;DHT22;9428;50.950;6.912;2023-09-12T15:55:46;24.70;99.90
18597;DHT22;9428;50.950;6.912;2023-09-12T15:58:35;24.80;99.90
18597;DHT22;9428;50.950;6.912;2023-09-12T16:01:22;24.80;99.90
18597;DHT22;9428;50.950;6.912;2023-09-12T16:04:11;24.80;99.90
18597;DHT22;9428;50.950;6.912;2023-09-12T16:06:58;24.80;99.90
18597;DHT22;9428;50.950;6.912;2023-09-12T16:09:46;24.80;99.90
18597;DHT22;9428;50.950;6.912;2023-09-12T16:12:34;24.90;99.90
18597;DHT22;9428;50.950;6.912;2023-09-12T16:15:21;24.80;99.90
18597;DHT22;9428;50.950;6.912;2023-09-12T16:18:08;24.80;99.90
18597;DHT22;9428;50.950;6.912;2023-09-12T16:20:57;24.80;99.90
18597;DHT22;9428;50.950;6.912;2023-09-12T16:23:45;24.80;99.90
18597;DHT22;9428;50.950;6.912;2023-09-12T16:26:32;24.70;99.90
18597;DHT22;9428;50.950;6.912;2023-09-12T16:29:20;24.60;99.90
18597;DHT22;9428;50.950;6.912;2023-09-12T16:32:08;24.70;99.90
18597;DHT22;9428;50.950;6.912;2023-09-12T16:34:55;24.70;99.90
18597;DHT22;9428;50.950;6.912;2023-09-12T16:37:44;24.50;99.90
18597;DHT22;9428;50.950;6.912;2023-09-12T16:40:33;24.60;99.90
18597;DHT22;9428;50.950;6.912;2023-09-12T16:43:20;24.50;99.90
18597;DHT22;9428;50.950;6.912;2023-09-12T16:46:08;24.40;99.90
18597;DHT22;9428;50.950;6.912;2023-09-12T16:48:55;24.40;99.90
18597;DHT22;9428;50.950;6.912;2023-09-12T16:51:43;24.40;99.90
18597;DHT22;9428;50.950;6.912;2023-09-12T16:54:33;24.30;99.90
18597;DHT22;9428;50.950;6.912;2023-09-12T16:57:20;24.30;99.90
18597;DHT22;9428;50.950;6.912;2023-09-12T17:00:09;24.20;99.90
18597;DHT22;9428;50.950;6.912;2023-09-12T17:02:56;24.20;99.90
18597;DHT22;9428;50.950;6.912;2023-09-12T17:05:43;24.30;99.90
18597;DHT22;9428;50.950;6.912;2023-09-12T17:08:31;24.20;99.90
18597;DHT22;9428;50.950;6.912;2023-09-12T17:11:19;24.20;99.90
18597;DHT22;9428;50.950;6.912;2023-09-12T17:14:08;24.10;99.90
18597;DHT22;9428;50.950;6.912;2023-09-12T17:16:55;24.00;99.90
18597;DHT22;9428;50.950;6.912;2023-09-12T17:19:42;24.00;99.90
18597;DHT22;9428;50.950;6.912;2023-09-12T17:22:30;24.00;99.90
18597;DHT22;9428;50.950;6.912;2023-09-12T17:25:17;24.00;99.90
18597;DHT22;9428;50.950;6.912;2023-09-12T17:28:06;24.10;99.90
18597;DHT22;9428;50.950;6.912;2023-09-12T17:30:54;23.90;99.90
18597;DHT22;9428;50.950;6.912;2023-09-12T17:33:41;23.90;99.90
18597;DHT22;9428;50.950;6.912;2023-09-12T17:36:28;23.90;99.90
18597;DHT22;9428;50.950;6.912;2023-09-12T17:39:15;23.90;99.90
18597;DHT22;9428;50.950;6.912;2023-09-12T17:42:03;23.80;99.90
18597;DHT22;9428;50.950;6.912;2023-09-12T17:44:53;23.80;99.90
18597;DHT22;9428;50.950;6.912;2023-09-12T17:47:41;23.80;99.90
18597;DHT22;9428;50.950;6.912;2023-09-12T17:50:28;23.80;99.90
18597;DHT22;9428;50.950;6.912;2023-09-12T17:53:15;23.70;99.90
18597;DHT22;9428;50.950;6.912;2023-09-12T17:56:03;23.50;99.90
18597;DHT22;9428;50.950;6.912;2023-09-12T17:58:50;23.50;99.90
18597;DHT22;9428;50.950;6.912;2023-09-12T18:01:39;23.40;99.90